Time;durP1;ratioP1;P1;durP2;ratioP2;P2;SDS_P1;SDS_P2;PMS_P1;PMS_P2;Temp;Humidity;BMP_temperature;BMP_pressure;BME280_temperature;BME280_humidity;BME280_pressure;Samples;Min_cycle;Max_cycle;Signal;HPM_P1;HPM_P2
2022/07/10 00:01:55;;;;;;;4.90;4.40;;;;;;;29.98;46.50;101567.94;4198050;28;20036;-59
2022/07/10 00:03:57;;;;;;;5.53;4.10;;;;;;;29.98;46.48;101575.59;4198335;28;20036;-59
2022/07/10 00:05:58;;;;;;;5.97;4.78;;;;;;;29.98;46.45;101570.75;4198322;28;20049;-59
2022/07/10 00:08:00;;;;;;;4.05;3.60;;;;;;;29.97;46.68;101574.75;4197849;28;20553;-61
2022/07/10 00:10:03;;;;;;;4.32;3.92;;;;;;;29.92;46.49;101565.59;4197012;28;20032;-60
2022/07/10 00:12:05;;;;;;;4.85;4.25;;;;;;;29.96;46.58;101580.69;4198049;28;20052;-61
2022/07/10 00:14:06;;;;;;;4.40;4.00;;;;;;;29.96;46.38;101573.06;4197785;28;20040;-59
2022/07/10 00:16:08;;;;;;;5.00;4.50;;;;;;;29.97;46.60;101585.22;4197850;28;20365;-59
2022/07/10 00:18:09;;;;;;;4.28;3.88;;;;;;;29.87;46.37;101575.88;4197895;28;20045;-60
2022/07/10 00:20:14;;;;;;;4.70;4.30;;;;;;;29.92;46.51;101582.50;4197795;28;20468;-60
2022/07/10 00:22:16;;;;;;;5.00;4.50;;;;;;;29.96;46.32;101592.81;4197904;28;20040;-60
2022/07/10 00:24:17;;;;;;;4.63;4.22;;;;;;;29.95;46.57;101584.69;4197593;28;20537;-60
2022/07/10 00:26:18;;;;;;;4.72;4.20;;;;;;;29.91;46.46;101581.69;4197527;28;20166;-60
2022/07/10 00:28:20;;;;;;;4.38;3.97;;;;;;;29.95;46.34;101579.03;4197644;28;20090;-60
2022/07/10 00:30:21;;;;;;;4.43;4.03;;;;;;;29.94;46.22;101578.22;4197601;28;20048;-61
2022/07/10 00:32:24;;;;;;;4.72;4.32;;;;;;;29.91;46.72;101563.94;4197499;28;20040;-60
2022/07/10 00:34:25;;;;;;;4.63;4.22;;;;;;;29.88;46.61;101559.78;4197897;28;20435;-60
2022/07/10 00:36:27;;;;;;;4.68;4.28;;;;;;;29.94;46.54;101568.94;4197512;28;20106;-60
2022/07/10 00:38:28;;;;;;;4.78;4.30;;;;;;;29.93;46.22;101573.75;4197286;28;20112;-60
2022/07/10 00:40:29;;;;;;;5.18;4.65;;;;;;;29.93;46.18;101572.91;4197649;28;20476;-59
2022/07/10 00:42:33;;;;;;;5.35;4.57;;;;;;;29.93;46.25;101572.91;4197675;28;20476;-59
2022/07/10 00:44:35;;;;;;;4.15;3.75;;;;;;;29.91;46.49;101569.56;4197823;28;20044;-59
2022/07/10 00:46:36;;;;;;;4.18;3.78;;;;;;;29.93;46.35;101578.56;4197869;28;20568;-59
2022/07/10 00:48:40;;;;;;;4.00;3.70;;;;;;;29.92;46.46;101576.88;4196317;28;20540;-59
2022/07/10 00:50:44;;;;;;;4.78;4.38;;;;;;;29.92;46.45;101572.09;4197352;28;20040;-59
2022/07/10 00:52:46;;;;;;;4.57;4.17;;;;;;;29.92;46.25;101577.72;4197401;28;20082;-59
2022/07/10 00:54:50;;;;;;;4.45;4.03;;;;;;;29.92;46.23;101576.88;4197642;28;20442;-59
2022/07/10 00:56:52;;;;;;;5.15;4.65;;;;;;;29.91;46.53;101578.03;4198359;28;20049;-59
2022/07/10 00:58:54;;;;;;;4.63;4.00;;;;;;;29.92;46.46;101583.38;4200782;28;20040;-59
2022/07/10 01:00:55;;;;;;;5.00;4.60;;;;;;;29.90;46.33;101579.19;4201118;28;20044;-59
2022/07/10 01:02:56;;;;;;;4.50;4.10;;;;;;;29.92;46.63;101582.50;4200933;28;20044;-59
2022/07/10 01:04:58;;;;;;;4.57;4.18;;;;;;;29.90;46.54;101590.50;4201121;28;20032;-59
2022/07/10 01:07:00;;;;;;;4.40;4.00;;;;;;;29.90;46.40;101596.13;4200703;28;20094;-60
2022/07/10 01:09:01;;;;;;;4.70;4.25;;;;;;;29.86;46.50;101591.13;4200646;28;20109;-59
2022/07/10 01:11:04;;;;;;;4.95;3.80;;;;;;;29.87;46.51;101598.47;4200530;28;20075;-60
2022/07/10 01:13:08;;;;;;;3.97;3.65;;;;;;;29.87;46.40;101598.47;4200813;28;20094;-60
2022/07/10 01:15:12;;;;;;;;;;;;;;;29.86;46.76;101613.69;4200932;28;20082;-59
2022/07/10 01:17:14;;;;;;;4.70;4.15;;;;;;;29.93;46.31;101615.25;4201168;28;19973;-59
2022/07/10 01:19:15;;;;;;;5.05;4.22;;;;;;;29.93;46.30;101607.59;4200543;28;20036;-59
2022/07/10 01:21:37;;;;;;;5.13;4.63;;;;;;;29.89;46.37;101600.94;4200598;28;20464;-59
2022/07/10 01:23:39;;;;;;;4.50;4.10;;;;;;;29.91;46.36;101609.06;4200624;28;20045;-60
2022/07/10 01:25:40;;;;;;;4.97;4.47;;;;;;;29.90;46.40;101608.25;4199537;28;20070;-60
2022/07/10 01:27:41;;;;;;;4.07;3.78;;;;;;;29.89;46.58;101606.59;4200527;28;20431;-61
2022/07/10 01:29:46;;;;;;;4.70;4.18;;;;;;;29.87;46.68;101615.38;4200013;28;20101;-59
2022/07/10 01:31:48;;;;;;;5.13;4.63;;;;;;;29.87;46.75;101626.69;4200555;28;20041;-60
2022/07/10 01:33:49;;;;;;;4.40;4.00;;;;;;;29.87;46.72;101626.69;4200179;28;20480;-60
2022/07/10 01:35:51;;;;;;;4.20;3.80;;;;;;;29.80;46.53;101615.03;4199952;28;20037;-60
2022/07/10 01:37:52;;;;;;;4.50;4.10;;;;;;;29.80;46.63;101615.03;4200562;28;20090;-60
2022/07/10 01:39:53;;;;;;;4.75;4.25;;;;;;;29.86;46.53;101624.16;4200142;28;20094;-60
2022/07/10 01:42:00;;;;;;;4.40;4.00;;;;;;;29.80;46.57;101615.03;4199883;28;20044;-60
2022/07/10 01:44:02;;;;;;;4.75;4.35;;;;;;;29.78;46.60;101606.06;4200409;28;20041;-60
2022/07/10 01:46:04;;;;;;;4.82;4.43;;;;;;;29.85;46.49;101623.34;4200361;28;20044;-59
2022/07/10 01:48:08;;;;;;;4.40;4.00;;;;;;;29.85;46.50;101622.50;4200296;28;20090;-59
2022/07/10 01:50:09;;;;;;;4.18;3.70;;;;;;;29.81;46.49;101610.19;4200257;28;20044;-59
2022/07/10 01:52:11;;;;;;;4.43;4.03;;;;;;;29.84;46.90;101616.03;4198745;28;20365;-60
2022/07/10 01:54:13;;;;;;;4.90;4.40;;;;;;;29.84;46.69;101616.03;4199840;28;20048;-59
2022/07/10 01:56:15;;;;;;;4.47;4.07;;;;;;;29.84;46.54;101615.22;4200192;28;20041;-59
2022/07/10 01:58:17;;;;;;;4.50;4.10;;;;;;;29.75;46.69;101601.06;4199842;28;20045;-59
2022/07/10 02:00:18;;;;;;;4.90;4.40;;;;;;;29.83;46.42;101622.84;4200178;28;20040;-59
2022/07/10 02:02:20;;;;;;;4.40;4.00;;;;;;;29.83;46.84;101625.66;4200126;28;20102;-59
2022/07/10 02:06:44;;;;;;;5.30;4.30;;;;;;;29.82;46.49;101626.78;4200387;28;20082;-59
2022/07/10 02:08:48;;;;;;;4.45;4.05;;;;;;;29.82;46.69;101623.97;4198599;28;20458;-59
2022/07/10 02:10:55;;;;;;;4.18;3.78;;;;;;;29.78;46.72;101617.34;4200003;28;20036;-59
2022/07/10 02:12:56;;;;;;;4.63;4.22;;;;;;;29.83;46.42;101619.19;4199710;28;20542;-59
2022/07/10 02:15:01;;;;;;;4.97;4.55;;;;;;;29.82;46.58;101618.34;4199644;28;20037;-59
2022/07/10 02:17:04;;;;;;;4.00;3.63;;;;;;;29.83;46.51;101607.91;4199832;28;20102;-59
2022/07/10 02:19:05;;;;;;;4.68;4.20;;;;;;;29.83;46.62;101614.38;4199615;28;20438;-59
2022/07/10 02:21:07;;;;;;;4.45;3.72;;;;;;;29.82;46.72;101607.03;4199731;28;20090;-59
2022/07/10 02:23:08;;;;;;;4.93;4.20;;;;;;;29.81;46.66;101605.38;4199473;28;20048;-59
2022/07/10 02:25:10;;;;;;;4.53;4.13;;;;;;;29.82;46.58;101606.22;4199454;28;20045;-59
2022/07/10 02:27:11;;;;;;;5.32;4.18;;;;;;;29.80;46.62;101612.19;4199538;28;20041;-60
2022/07/10 02:29:12;;;;;;;5.03;4.10;;;;;;;29.81;46.79;101616.69;4199294;28;20460;-60
2022/07/10 02:31:19;;;;;;;5.00;4.50;;;;;;;29.80;46.78;101609.38;4199572;28;20037;-60
2022/07/10 02:33:20;;;;;;;4.72;4.10;;;;;;;29.80;46.71;101608.56;4199618;28;20479;-59
2022/07/10 02:35:25;;;;;;;4.18;3.85;;;;;;;29.80;46.74;101617.00;4199746;28;20024;-60
2022/07/10 02:37:26;;;;;;;4.20;3.80;;;;;;;29.79;46.71;101607.72;4199635;28;20093;-60
2022/07/10 02:39:27;;;;;;;5.22;4.40;;;;;;;29.80;46.59;101615.03;4199262;28;20468;-60
2022/07/10 02:41:29;;;;;;;4.50;4.10;;;;;;;29.77;46.55;101604.38;4199296;28;20058;-60
2022/07/10 02:43:33;;;;;;;4.25;3.85;;;;;;;29.80;46.47;101611.38;4199157;28;20537;-60
2022/07/10 02:45:34;;;;;;;4.75;4.22;;;;;;;29.79;46.53;101624.66;4199154;28;20048;-59
2022/07/10 02:47:38;;;;;;;4.53;4.13;;;;;;;29.79;46.66;101616.19;4199186;28;20041;-59
2022/07/10 02:49:43;;;;;;;4.70;4.30;;;;;;;29.78;46.92;101611.72;4199172;28;20041;-60
2022/07/10 02:51:44;;;;;;;4.00;3.60;;;;;;;29.79;46.60;101613.38;4199445;28;20036;-60
2022/07/10 02:53:46;;;;;;;4.57;4.13;;;;;;;29.78;46.51;101617.34;4199437;28;20101;-60
2022/07/10 02:55:48;;;;;;;4.90;4.43;;;;;;;29.78;46.61;101616.50;4199744;28;20041;-60
2022/07/10 02:57:49;;;;;;;4.75;4.32;;;;;;;29.80;46.64;101615.03;4199312;28;20037;-60
2022/07/10 02:59:52;;;;;;;4.40;4.00;;;;;;;29.80;46.65;101619.84;4198954;28;20067;-60
2022/07/10 03:01:53;;;;;;;4.35;3.95;;;;;;;29.79;46.54;101613.38;4199285;28;20044;-60
2022/07/10 03:04:01;;;;;;;4.53;4.13;;;;;;;29.80;46.46;101614.19;4199573;28;20032;-60
2022/07/10 03:06:03;;;;;;;4.47;4.07;;;;;;;29.82;46.45;101612.69;4199730;28;20109;-60
2022/07/10 03:08:04;;;;;;;4.75;4.28;;;;;;;29.82;46.65;101611.84;4199568;28;20044;-59
2022/07/10 03:10:06;;;;;;;4.57;4.18;;;;;;;29.82;46.45;101607.03;4199588;28;20041;-59
2022/07/10 03:12:09;;;;;;;4.63;4.22;;;;;;;29.81;46.70;101605.38;4199674;28;20033;-60
2022/07/10 03:14:11;;;;;;;4.50;4.10;;;;;;;29.83;46.71;101624.84;4199524;28;20094;-60
2022/07/10 03:16:13;;;;;;;4.22;3.83;;;;;;;29.82;46.64;101612.69;4199679;28;20036;-60
2022/07/10 03:18:15;;;;;;;4.40;4.00;;;;;;;29.83;46.68;101608.72;4199022;28;20106;-59
2022/07/10 03:20:16;;;;;;;4.55;4.15;;;;;;;29.81;46.56;101611.03;4198419;28;20036;-59
2022/07/10 03:22:18;;;;;;;5.05;4.53;;;;;;;29.83;46.50;101607.91;4197812;28;20454;-59
2022/07/10 03:24:20;;;;;;;6.28;4.30;;;;;;;29.83;46.54;101613.56;4198886;28;20037;-59
2022/07/10 03:26:21;;;;;;;5.80;4.43;;;;;;;29.83;46.36;101611.56;4200124;28;20518;-59
2022/07/10 03:28:23;;;;;;;5.50;4.82;;;;;;;29.83;46.77;101614.38;4199224;28;20041;-59
2022/07/10 03:30:25;;;;;;;4.47;3.92;;;;;;;29.71;46.28;101593.56;4199851;28;20037;-59
2022/07/10 03:32:27;;;;;;;5.40;4.90;;;;;;;29.82;46.48;101607.03;4199372;28;20438;-59
2022/07/10 03:34:29;;;;;;;4.82;4.35;;;;;;;29.83;46.33;101614.38;4199176;28;20036;-60
2022/07/10 03:36:31;;;;;;;4.82;4.38;;;;;;;29.78;46.72;101600.41;4198449;28;20097;-60
2022/07/10 03:38:32;;;;;;;4.97;4.32;;;;;;;29.82;46.61;101606.22;4198496;28;20036;-59
2022/07/10 03:40:34;;;;;;;4.88;4.07;;;;;;;29.82;46.65;101612.69;4180777;28;20037;-59
2022/07/10 03:42:35;;;;;;;4.53;4.13;;;;;;;29.82;46.59;101612.69;4198799;28;20036;-59
2022/07/10 03:44:37;;;;;;;5.38;4.25;;;;;;;29.82;46.59;101612.69;4198431;28;20070;-60
2022/07/10 03:46:39;;;;;;;4.75;4.20;;;;;;;29.82;46.44;101607.03;4198714;28;20040;-60
2022/07/10 03:48:40;;;;;;;4.63;4.22;;;;;;;29.79;46.33;101607.72;4197464;28;20174;-59
2022/07/10 03:50:42;;;;;;;4.28;3.92;;;;;;;29.78;46.54;101606.06;4198713;28;20040;-59
2022/07/10 03:52:46;;;;;;;4.43;4.03;;;;;;;29.80;46.36;101612.19;4198679;28;20036;-59
2022/07/10 03:54:47;;;;;;;4.43;4.00;;;;;;;29.78;46.53;101617.34;4198955;28;20048;-60
2022/07/10 03:59:11;;;;;;;4.65;4.25;;;;;;;29.80;46.44;101617.84;4200236;28;20521;-60
2022/07/10 04:01:13;;;;;;;5.13;4.57;;;;;;;29.81;46.56;101611.03;4197664;28;20066;-60
2022/07/10 04:03:15;;;;;;;4.55;4.15;;;;;;;29.80;46.31;101598.09;4197215;28;20090;-60
2022/07/10 04:05:17;;;;;;;5.22;4.57;;;;;;;29.80;46.45;101602.91;4198862;28;20550;-60
2022/07/10 04:07:21;;;;;;;4.68;4.13;;;;;;;29.81;46.45;101615.84;4198156;28;20045;-59
2022/07/10 04:09:23;;;;;;;4.18;3.75;;;;;;;29.80;46.44;101615.03;4196843;28;20450;-59
2022/07/10 04:11:25;;;;;;;4.45;4.00;;;;;;;29.80;46.69;101614.19;4197721;28;20066;-59
2022/07/10 04:13:30;;;;;;;5.00;4.47;;;;;;;29.79;46.54;101613.38;4198925;28;20036;-60
2022/07/10 04:15:32;;;;;;;4.90;4.40;;;;;;;29.80;46.59;101611.38;4199103;28;20095;-58
2022/07/10 04:17:34;;;;;;;4.47;4.07;;;;;;;29.79;46.46;101613.38;4198362;28;20032;-58
2022/07/10 04:19:35;;;;;;;4.55;4.15;;;;;;;29.79;46.30;101616.19;4197053;28;20162;-60
2022/07/10 04:21:37;;;;;;;5.13;4.63;;;;;;;29.79;46.42;101624.66;4198352;28;20467;-60
2022/07/10 04:23:41;;;;;;;5.95;3.85;;;;;;;29.78;46.45;101630.59;4197930;28;20102;-60
2022/07/10 04:25:43;;;;;;;4.70;4.20;;;;;;;29.77;46.44;101626.94;4197957;28;20471;-60
2022/07/10 04:27:46;;;;;;;4.95;4.45;;;;;;;29.67;46.46;101604.66;4196810;28;20041;-59
2022/07/10 04:29:51;;;;;;;4.47;4.05;;;;;;;29.76;46.60;101614.00;4197222;28;20082;-59
2022/07/10 04:31:52;;;;;;;4.65;4.25;;;;;;;29.71;46.48;101599.22;4197409;28;20037;-60
2022/07/10 04:33:57;;;;;;;4.80;4.40;;;;;;;29.68;46.77;101597.88;4197949;28;20479;-60
2022/07/10 04:35:58;;;;;;;4.43;4.03;;;;;;;29.73;46.63;101611.00;4197712;28;20040;-60
2022/07/10 04:38:00;;;;;;;5.10;4.60;;;;;;;29.71;46.76;101610.50;4197528;28;20097;-60
2022/07/10 04:40:01;;;;;;;4.93;4.47;;;;;;;29.71;46.78;101602.88;4197567;28;20122;-60
2022/07/10 04:42:03;;;;;;;4.50;4.10;;;;;;;29.70;46.77;101598.38;4197894;28;20029;-60
2022/07/10 04:44:04;;;;;;;4.78;4.28;;;;;;;29.70;46.75;101606.84;4197706;28;20044;-60
2022/07/10 04:46:07;;;;;;;4.57;4.18;;;;;;;29.70;46.76;101609.69;4197805;28;20040;-60
2022/07/10 04:48:08;;;;;;;4.65;4.25;;;;;;;29.68;46.97;101606.31;4196368;28;20106;-59
2022/07/10 04:50:15;;;;;;;4.80;4.30;;;;;;;29.70;46.55;101598.38;4197406;28;20036;-59
2022/07/10 04:52:16;;;;;;;4.90;4.40;;;;;;;29.71;46.56;101602.88;4197694;28;20094;-60
2022/07/10 04:54:18;;;;;;;4.75;4.32;;;;;;;29.70;46.65;101603.19;4197539;28;20430;-59
2022/07/10 04:56:19;;;;;;;4.53;4.13;;;;;;;29.68;46.53;101606.31;4197773;28;20036;-59
2022/07/10 04:58:20;;;;;;;4.80;4.30;;;;;;;29.70;46.72;101608.84;4197010;28;20114;-59
2022/07/10 05:00:22;;;;;;;4.55;3.90;;;;;;;29.69;46.44;101613.66;4197442;28;20036;-60
2022/07/10 05:02:23;;;;;;;4.90;4.50;;;;;;;29.69;46.51;101595.88;4197791;28;20108;-58
2022/07/10 05:04:25;;;;;;;4.82;4.43;;;;;;;29.66;46.80;101586.09;4197558;28;20098;-59
2022/07/10 05:06:26;;;;;;;4.90;4.40;;;;;;;29.68;46.61;101580.13;4197587;28;20102;-59
2022/07/10 05:08:27;;;;;;;5.47;4.13;;;;;;;29.65;46.86;101578.78;4197198;28;20094;-59
2022/07/10 05:10:29;;;;;;;4.57;4.10;;;;;;;29.68;46.66;101577.28;4196161;28;20099;-59
2022/07/10 05:12:31;;;;;;;5.05;4.55;;;;;;;29.61;46.96;101567.31;4197431;28;20530;-59
2022/07/10 05:14:33;;;;;;;4.18;3.78;;;;;;;29.68;46.47;101572.47;4197450;28;20066;-59
2022/07/10 05:16:34;;;;;;;5.60;4.53;;;;;;;29.68;46.58;101571.66;4197885;28;20040;-59
2022/07/10 05:18:36;;;;;;;5.13;4.40;;;;;;;29.64;46.71;101563.00;4197326;28;20032;-59
2022/07/10 05:20:41;;;;;;;4.70;4.30;;;;;;;29.69;46.51;101577.00;4196333;28;20048;-59
2022/07/10 05:22:43;;;;;;;5.22;4.13;;;;;;;29.66;46.59;101562.69;4197251;28;20094;-59
2022/07/10 05:24:44;;;;;;;4.78;4.38;;;;;;;29.70;46.48;101570.19;4197646;28;20040;-59
2022/07/10 05:26:46;;;;;;;5.28;4.78;;;;;;;29.71;46.50;101576.66;4197685;28;20040;-59
2022/07/10 05:28:48;;;;;;;4.68;4.28;;;;;;;29.71;46.70;101571.84;4196970;28;20473;-59
2022/07/10 05:30:49;;;;;;;5.00;4.28;;;;;;;29.66;46.64;101569.16;4197371;28;20037;-59
2022/07/10 05:32:51;;;;;;;4.63;4.20;;;;;;;29.71;46.68;101577.47;4197417;28;20032;-59
2022/07/10 05:34:53;;;;;;;4.43;4.03;;;;;;;29.70;46.38;101581.47;4197737;28;20086;-60
2022/07/10 05:36:54;;;;;;;4.55;4.15;;;;;;;29.70;46.66;101570.19;4197615;28;20253;-58
2022/07/10 05:38:56;;;;;;;4.57;4.18;;;;;;;29.71;46.58;101569.03;4197400;28;20045;-59
2022/07/10 05:40:57;;;;;;;4.40;4.00;;;;;;;29.71;46.65;101574.66;4197754;28;20094;-59
2022/07/10 05:43:02;;;;;;;4.90;4.50;;;;;;;29.70;46.49;101575.81;4198207;28;20090;-59
2022/07/10 05:45:05;;;;;;;;;;;;;;;29.70;46.59;101569.34;4201220;28;20040;-59
2022/07/10 05:47:07;;;;;;;4.72;4.32;;;;;;;29.75;46.54;101563.56;4199409;28;19978;-59
2022/07/10 05:49:09;;;;;;;4.82;4.05;;;;;;;29.67;46.50;101550.25;4200336;28;20553;-59
2022/07/10 05:51:11;;;;;;;4.75;4.35;;;;;;;29.73;46.44;101558.22;4200598;28;20098;-59
2022/07/10 05:53:13;;;;;;;5.03;4.53;;;;;;;29.68;46.37;101558.38;4200099;28;20040;-60
2022/07/10 05:55:15;;;;;;;4.93;4.53;;;;;;;29.68;46.40;101558.38;4199513;28;20055;-60
2022/07/10 05:57:17;;;;;;;5.03;4.43;;;;;;;29.70;46.48;101564.53;4200487;28;20044;-60
2022/07/10 05:59:19;;;;;;;5.20;4.70;;;;;;;29.55;46.57;101533.94;4199776;28;20032;-59
2022/07/10 06:01:22;;;;;;;5.38;4.50;;;;;;;29.71;46.37;101568.19;4199138;28;20095;-59
2022/07/10 06:03:24;;;;;;;4.57;4.18;;;;;;;29.67;46.44;101559.53;4200004;28;20422;-58
2022/07/10 06:05:25;;;;;;;4.97;4.40;;;;;;;29.68;46.54;101569.66;4200331;28;20056;-59
2022/07/10 06:07:30;;;;;;;5.00;4.47;;;;;;;29.67;46.77;101561.53;4200305;28;20125;-59
2022/07/10 06:09:40;;;;;;;5.00;4.50;;;;;;;29.63;46.46;101558.53;4200256;28;20132;-60
2022/07/10 06:11:44;;;;;;;4.97;4.50;;;;;;;29.65;46.60;101561.88;4200044;28;20032;-60
2022/07/10 06:13:48;;;;;;;4.75;4.35;;;;;;;29.68;46.54;101569.66;4199240;28;20479;-60
2022/07/10 06:15:50;;;;;;;;;;;;;;;29.67;46.72;101576.47;4201128;28;20075;-60
2022/07/10 06:17:51;;;;;;;5.20;4.03;;;;;;;29.68;46.31;101561.19;4199515;28;19920;-57
2022/07/10 06:19:54;;;;;;;5.07;4.57;;;;;;;29.72;46.64;101572.66;4199792;28;20036;-57
2022/07/10 06:24:15;;;;;;;4.50;4.00;;;;;;;29.70;46.48;101578.66;4201166;28;20115;-58
2022/07/10 06:26:17;;;;;;;4.70;4.20;;;;;;;29.69;46.33;101573.31;4199069;28;20041;-58
2022/07/10 06:28:19;;;;;;;5.28;4.68;;;;;;;29.68;46.46;101572.47;4200076;28;20044;-60
2022/07/10 06:30:20;;;;;;;5.13;4.63;;;;;;;29.67;46.61;101570.81;4198822;28;20045;-60
2022/07/10 06:32:22;;;;;;;4.53;4.13;;;;;;;29.65;46.62;101567.50;4199725;28;20513;-60
2022/07/10 06:34:26;;;;;;;4.72;4.32;;;;;;;29.62;46.54;101573.81;4199168;28;20036;-60
2022/07/10 06:36:28;;;;;;;5.28;4.78;;;;;;;29.64;46.65;101571.47;4199404;28;20044;-60
2022/07/10 06:38:29;;;;;;;4.93;4.43;;;;;;;29.61;46.57;101566.50;4198756;28;20090;-60
2022/07/10 06:40:38;;;;;;;5.03;4.13;;;;;;;29.60;46.86;101570.47;4199582;28;20079;-60
2022/07/10 06:42:40;;;;;;;4.53;4.13;;;;;;;29.60;46.85;101576.13;4198607;28;20541;-60
2022/07/10 06:44:42;;;;;;;5.20;4.70;;;;;;;29.60;46.63;101574.13;4199496;28;20146;-60
2022/07/10 06:47:55;;;;;;;4.65;4.25;;;;;;;29.59;46.68;101577.25;4199369;28;20036;-60
2022/07/10 06:49:05;;;;;;;4.72;4.22;;;;;;;29.57;46.76;101571.13;4199258;28;20093;-59
2022/07/10 06:51:09;;;;;;;5.10;4.60;;;;;;;29.58;46.70;101578.41;4199396;28;20036;-60
2022/07/10 06:53:11;;;;;;;4.53;4.13;;;;;;;29.58;46.91;101578.41;4199504;28;20032;-60
2022/07/10 06:55:12;;;;;;;4.88;4.32;;;;;;;29.55;46.80;101573.41;4198727;28;20094;-60
2022/07/10 06:57:14;;;;;;;4.95;4.55;;;;;;;29.52;47.02;101569.25;4199286;28;20522;-60
2022/07/10 06:59:15;;;;;;;5.28;4.47;;;;;;;29.57;46.65;101571.13;4198962;28;20036;-60
2022/07/10 07:01:17;;;;;;;4.28;3.97;;;;;;;29.56;46.86;101575.09;4199199;28;20028;-60
2022/07/10 07:03:18;;;;;;;4.85;4.35;;;;;;;29.55;46.81;101576.25;4199107;28;20086;-60
2022/07/10 07:05:19;;;;;;;4.95;4.25;;;;;;;29.52;46.90;101569.25;4199120;28;20422;-59
2022/07/10 07:07:21;;;;;;;5.05;4.25;;;;;;;29.56;46.96;101577.94;4198943;28;20117;-60
2022/07/10 07:09:22;;;;;;;4.85;4.45;;;;;;;29.55;46.76;101584.69;4198784;28;20032;-60
2022/07/10 07:11:23;;;;;;;5.22;4.72;;;;;;;29.54;46.73;101583.84;4198957;28;20036;-60
2022/07/10 07:13:25;;;;;;;4.68;4.25;;;;;;;29.55;46.81;101584.69;4198950;28;20040;-60
2022/07/10 07:15:26;;;;;;;5.80;4.28;;;;;;;29.54;46.64;101583.00;4198589;28;20032;-60
2022/07/10 07:17:33;;;;;;;5.10;4.60;;;;;;;29.53;46.82;101575.72;4198870;28;20032;-60
2022/07/10 07:24:21;;;;;;;4.68;4.28;;;;;;;29.54;46.65;101571.72;4199102;28;20442;-59
2022/07/10 07:26:22;;;;;;;4.80;4.40;;;;;;;29.54;46.92;101580.19;4198338;28;20036;-60
2022/07/10 07:28:28;;;;;;;4.78;4.20;;;;;;;29.47;46.85;101565.75;4198214;28;20095;-60
2022/07/10 07:30:30;;;;;;;4.80;4.35;;;;;;;29.53;47.06;101578.53;4198725;28;20049;-61
2022/07/10 07:32:38;;;;;;;4.75;4.35;;;;;;;29.49;46.89;101578.34;4198324;28;20071;-60
2022/07/10 07:34:39;;;;;;;4.78;4.22;;;;;;;29.53;46.89;101578.53;4198618;28;20090;-60
2022/07/10 07:36:40;;;;;;;4.93;4.45;;;;;;;29.43;46.89;101564.72;4198208;28;20090;-60
2022/07/10 07:38:41;;;;;;;4.82;4.20;;;;;;;29.52;46.81;101579.69;4198104;28;20090;-60
2022/07/10 07:40:46;;;;;;;4.80;4.40;;;;;;;29.47;46.65;101571.38;4198652;28;20033;-61
2022/07/10 07:42:47;;;;;;;4.50;4.10;;;;;;;29.51;46.84;101566.75;4198548;28;20098;-60
2022/07/10 07:44:48;;;;;;;4.53;4.13;;;;;;;29.50;46.99;101568.72;4198437;28;20098;-60
2022/07/10 07:46:49;;;;;;;5.85;5.25;;;;;;;29.50;46.79;101571.53;4198200;28;20094;-60
2022/07/10 07:48:51;;;;;;;4.72;4.32;;;;;;;29.49;46.81;101571.88;4197728;28;20517;-60
2022/07/10 07:50:53;;;;;;;4.63;4.18;;;;;;;29.51;47.01;101569.59;4198414;28;20093;-60
2022/07/10 07:52:55;;;;;;;5.28;4.78;;;;;;;29.49;46.99;101566.25;4198266;28;20040;-60
2022/07/10 07:54:56;;;;;;;4.80;4.40;;;;;;;29.48;46.80;101573.88;4198484;28;20028;-61
2022/07/10 07:57:00;;;;;;;4.53;4.07;;;;;;;29.44;46.80;101558.75;4198102;28;20090;-60
2022/07/10 07:59:02;;;;;;;4.50;4.10;;;;;;;29.45;47.01;101565.22;4198006;28;20036;-60
2022/07/10 08:01:03;;;;;;;5.22;4.72;;;;;;;29.47;46.91;101569.41;4198627;28;20037;-61
2022/07/10 08:03:05;;;;;;;5.05;4.55;;;;;;;29.47;46.76;101565.75;4198373;28;20040;-61
2022/07/10 08:05:07;;;;;;;4.90;4.50;;;;;;;29.47;46.92;101571.38;4195432;28;20569;-60
2022/07/10 08:07:08;;;;;;;5.35;4.20;;;;;;;29.48;46.79;101573.03;4197438;28;20040;-60
2022/07/10 08:09:10;;;;;;;5.32;4.68;;;;;;;29.47;46.91;101571.38;4197654;28;20090;-60
2022/07/10 08:11:11;;;;;;;4.60;4.20;;;;;;;29.45;46.88;101568.03;4197852;28;20054;-60
2022/07/10 08:13:13;;;;;;;5.90;4.93;;;;;;;29.47;46.87;101577.03;4198250;28;20114;-60
2022/07/10 08:15:16;;;;;;;5.20;4.60;;;;;;;29.48;46.98;101578.69;4197722;28;20040;-60
2022/07/10 08:17:21;;;;;;;5.10;4.60;;;;;;;29.48;47.07;101584.31;4198094;28;20041;-60
2022/07/10 08:19:28;;;;;;;5.20;4.68;;;;;;;29.46;46.88;101580.97;4197352;28;20033;-60
2022/07/10 08:21:30;;;;;;;5.10;4.63;;;;;;;29.45;46.92;101587.78;4197906;28;20036;-60
2022/07/10 08:23:37;;;;;;;7.75;4.38;;;;;;;29.46;46.76;101589.44;4197492;28;20090;-60
2022/07/10 08:25:41;;;;;;;4.78;4.28;;;;;;;29.42;46.69;101589.28;4197576;28;20086;-60
2022/07/10 08:27:42;;;;;;;5.35;4.88;;;;;;;29.36;46.85;101577.28;4197532;28;20036;-60
2022/07/10 08:29:46;;;;;;;4.72;4.32;;;;;;;29.17;46.63;101551.31;4197699;28;20082;-60
2022/07/10 08:31:48;;;;;;;5.45;4.93;;;;;;;29.45;46.79;101597.06;4197834;28;20094;-60
2022/07/10 08:33:52;;;;;;;5.25;4.75;;;;;;;29.45;47.01;101601.88;4197542;28;20040;-60
2022/07/10 08:35:58;;;;;;;4.90;4.50;;;;;;;29.45;46.98;101599.88;4197519;28;20033;-62
2022/07/10 08:38:05;;;;;;;5.75;4.88;;;;;;;29.45;47.08;101593.41;4197338;28;20126;-60
2022/07/10 08:40:12;;;;;;;5.22;4.82;;;;;;;29.44;46.89;101594.59;4197568;28;20033;-60
2022/07/10 08:42:15;;;;;;;4.88;4.38;;;;;;;29.43;47.00;101599.41;4197766;28;20066;-60
2022/07/10 08:44:17;;;;;;;5.50;4.72;;;;;;;29.44;46.65;101591.75;4197725;28;20468;-60
2022/07/10 08:46:23;;;;;;;4.70;4.30;;;;;;;29.42;46.76;101589.28;4197978;28;20040;-60
2022/07/10 08:48:24;;;;;;;4.90;4.35;;;;;;;29.42;47.00;101585.63;4197475;28;20036;-60
2022/07/10 08:50:27;;;;;;;5.82;4.18;;;;;;;29.33;46.94;101575.13;4194982;28;20040;-60
2022/07/10 08:52:54;;;;;;;5.45;4.95;;;;;;;29.40;46.86;101587.94;4197720;28;20041;-60
2022/07/10 08:54:56;;;;;;;5.25;4.75;;;;;;;29.40;47.07;101583.13;4197715;28;20053;-61
2022/07/10 08:56:59;;;;;;;5.55;4.95;;;;;;;29.35;46.83;101581.25;4197686;28;20361;-60
2022/07/10 08:59:05;;;;;;;4.85;4.45;;;;;;;29.35;46.85;101581.25;4197367;28;20476;-61
2022/07/10 09:01:09;;;;;;;5.22;4.72;;;;;;;29.40;47.09;101585.94;4197573;28;20086;-60
2022/07/10 09:03:11;;;;;;;4.70;4.10;;;;;;;29.42;47.13;101588.44;4197502;28;20108;-60
2022/07/10 09:05:15;;;;;;;5.22;4.72;;;;;;;29.42;46.94;101585.63;4197554;28;20041;-60
2022/07/10 09:07:17;;;;;;;4.90;4.43;;;;;;;29.33;46.93;101582.75;4197587;28;20380;-60
2022/07/10 09:09:19;;;;;;;5.25;4.72;;;;;;;29.41;46.95;101590.41;4197303;28;20393;-60
2022/07/10 09:11:21;;;;;;;4.97;4.47;;;;;;;29.40;46.98;101593.56;4197553;28;20101;-60
2022/07/10 09:13:24;;;;;;;4.97;4.55;;;;;;;29.40;46.94;101602.84;4197620;28;20481;-61
2022/07/10 09:15:29;;;;;;;5.13;4.53;;;;;;;29.40;46.98;101596.38;4197533;28;20098;-61
2022/07/10 09:17:53;;;;;;;5.30;4.63;;;;;;;29.37;46.91;101598.72;4197554;28;20040;-60
2022/07/10 09:19:55;;;;;;;5.45;4.95;;;;;;;29.41;47.02;101595.22;4200570;28;20472;-60
2022/07/10 09:22:07;;;;;;;5.45;4.95;;;;;;;29.28;47.05;101575.28;4200832;28;20075;-60
2022/07/10 09:24:09;;;;;;;5.40;4.90;;;;;;;29.40;47.17;101599.19;4200685;28;20361;-60
2022/07/10 09:26:13;;;;;;;5.22;4.72;;;;;;;29.40;46.95;101602.03;4200693;28;20430;-60
2022/07/10 09:28:17;;;;;;;6.80;4.60;;;;;;;29.34;46.97;101593.69;4200839;28;20033;-60
2022/07/10 09:30:37;;;;;;;5.03;4.57;;;;;;;29.36;47.12;101599.00;4200774;28;20087;-60
2022/07/10 09:32:38;;;;;;;5.75;5.15;;;;;;;29.40;47.08;101600.03;4200574;28;20040;-60
2022/07/10 09:34:41;;;;;;;4.93;4.53;;;;;;;29.40;47.18;101599.19;4200280;28;20037;-60
2022/07/10 09:36:45;;;;;;;4.72;4.32;;;;;;;29.36;46.83;101593.38;4200657;28;20052;-60
2022/07/10 09:38:54;;;;;;;5.45;4.75;;;;;;;29.36;46.98;101597.00;4200162;28;20044;-60
2022/07/10 09:41:11;;;;;;;5.30;4.80;;;;;;;29.38;47.09;101597.53;4200572;28;20541;-60
2022/07/10 09:43:15;;;;;;;5.20;4.70;;;;;;;29.38;47.13;101596.72;4200529;28;20589;-60
2022/07/10 09:45:18;;;;;;;5.28;4.78;;;;;;;29.38;47.20;101599.53;4200014;28;20048;-60